createdAt,value
2023-03-13T07:21:52.365Z,7.50
2023-03-13T07:22:52.391Z,7.70
2023-03-13T07:23:52.376Z,5.60
2023-03-13T07:24:52.460Z,5.40
2023-03-13T07:25:52.348Z,6.50
2023-03-13T07:27:05.403Z,7.00
2023-03-13T07:27:53.325Z,7.40
2023-03-13T07:28:52.340Z,7.60
2023-03-13T07:29:52.223Z,6.30
2023-03-13T07:30:52.188Z,7.60
2023-03-13T07:31:52.247Z,6.50
2023-03-13T07:32:52.102Z,5.50
2023-03-13T07:33:52.010Z,5.90
2023-03-13T07:34:52.009Z,7.10
2023-03-13T07:35:51.878Z,6.50
2023-03-13T07:36:51.783Z,5.80
2023-03-13T07:37:51.711Z,7.10
2023-03-13T07:38:51.632Z,5.70
2023-03-13T07:39:51.607Z,4.70
2023-03-13T07:40:51.479Z,5.80
2023-03-13T07:41:51.418Z,7.00
2023-03-13T07:42:51.361Z,8.10
2023-03-13T07:43:51.321Z,6.30
2023-03-13T07:44:51.228Z,4.80
2023-03-13T07:45:51.222Z,7.90
2023-03-13T07:46:51.150Z,6.30
2023-03-13T07:47:51.050Z,5.40
2023-03-13T07:48:51.032Z,5.60
2023-03-13T07:49:50.987Z,7.80
2023-03-13T07:50:50.914Z,6.30
2023-03-13T07:51:50.822Z,6.50
2023-03-13T07:52:50.779Z,6.40
2023-03-13T07:53:50.681Z,6.90
2023-03-13T07:54:50.594Z,5.40
2023-03-13T07:55:50.532Z,6.20
2023-03-13T07:56:50.474Z,6.20
2023-03-13T07:57:50.382Z,4.70
2023-03-13T07:58:50.318Z,5.90
2023-03-13T07:59:50.239Z,5.60
2023-03-13T08:00:50.176Z,6.90
2023-03-13T08:01:50.172Z,6.40
2023-03-13T08:02:50.008Z,6.70
2023-03-13T08:03:50.099Z,5.80
2023-03-13T08:04:49.878Z,6.90
2023-03-13T08:05:49.812Z,4.70
2023-03-13T08:06:49.775Z,6.00
2023-03-13T08:07:49.663Z,6.20
2023-03-13T08:08:49.598Z,7.00
2023-03-13T08:09:49.520Z,7.00
2023-03-13T08:10:49.394Z,7.70
2023-03-13T08:11:49.348Z,5.50
2023-03-13T08:12:49.241Z,7.30
2023-03-13T08:13:49.176Z,5.90
2023-03-13T08:14:49.118Z,6.60
2023-03-13T08:15:49.052Z,7.20
2023-03-13T08:16:49.158Z,7.10
2023-03-13T08:17:48.901Z,5.50
2023-03-13T08:18:48.827Z,4.10
2023-03-13T08:19:48.765Z,5.00
2023-03-13T08:20:48.694Z,7.90
2023-03-13T08:21:48.619Z,5.10
2023-03-13T08:22:48.578Z,5.10
2023-03-13T08:23:48.482Z,5.20
2023-03-13T08:24:48.384Z,6.90
2023-03-13T08:25:48.372Z,6.20
2023-03-13T08:26:48.218Z,8.00
2023-03-13T08:27:48.188Z,5.30
2023-03-13T08:28:48.088Z,4.80
2023-03-13T08:29:48.007Z,6.80
2023-03-13T08:30:48.057Z,6.30
2023-03-13T08:31:47.946Z,4.50
2023-03-13T08:32:47.853Z,4.40
2023-03-13T08:33:47.716Z,5.90
2023-03-13T08:34:47.652Z,4.50
2023-03-13T08:35:47.608Z,5.60
2023-03-13T08:36:47.542Z,5.10
2023-03-13T08:37:47.470Z,5.90
2023-03-13T08:38:47.354Z,5.10
2023-03-13T08:39:47.271Z,6.20
2023-03-13T08:40:47.194Z,6.00
2023-03-13T08:45:15.365Z,13.10
2023-03-13T08:46:25.601Z,15.20
2023-03-13T08:47:15.521Z,17.00
2023-03-13T08:48:15.590Z,19.30
2023-03-13T08:49:15.663Z,18.90
2023-03-13T08:50:15.774Z,16.60
2023-03-13T08:53:52.705Z,16.70
2023-03-13T09:04:36.966Z,8.80
2023-03-13T09:06:27.608Z,14.00
2023-03-13T09:15:31.410Z,18.30
2023-03-13T09:16:31.471Z,17.70
2023-03-13T09:17:31.518Z,19.40
2023-03-13T09:20:00.050Z,19.20
2023-03-13T09:20:53.995Z,15.50
2023-03-13T09:21:53.064Z,18.00
2023-03-13T09:22:53.192Z,21.40
2023-03-13T09:23:53.255Z,17.00
2023-03-13T09:24:53.294Z,19.20
2023-03-13T09:25:53.471Z,15.70
2023-03-13T09:27:01.133Z,18.00
2023-03-13T09:27:54.575Z,21.50
2023-03-13T09:28:53.619Z,15.10
2023-03-13T09:29:53.711Z,20.10
2023-03-13T09:30:53.842Z,19.20
2023-03-13T09:31:53.909Z,18.70
2023-03-13T09:32:54.089Z,20.70
2023-03-13T09:33:54.107Z,16.30
2023-03-13T09:34:54.210Z,19.60
2023-03-13T09:35:54.393Z,16.40
2023-03-13T09:36:54.381Z,21.50
2023-03-13T09:37:54.519Z,16.40
2023-03-13T09:39:36.841Z,15.30
2023-03-13T09:40:36.871Z,15.30
2023-03-13T09:41:36.969Z,14.80
2023-03-13T09:42:37.018Z,14.80
2023-03-13T09:43:37.122Z,17.30
2023-03-13T09:44:37.179Z,15.50
2023-03-13T09:45:37.264Z,18.00
2023-03-13T09:46:37.401Z,15.90
2023-03-13T09:47:37.394Z,18.80
2023-03-13T09:48:37.501Z,19.10
2023-03-13T09:49:37.581Z,19.90
2023-03-13T09:50:37.682Z,17.30
2023-03-13T09:51:37.774Z,16.70
2023-03-13T09:52:37.832Z,17.10
2023-03-13T09:53:37.908Z,16.20
2023-03-13T09:54:38.007Z,19.90
2023-03-13T09:55:38.114Z,16.40
2023-03-13T09:56:38.217Z,16.40
2023-03-13T09:57:38.291Z,18.70
2023-03-13T09:58:38.327Z,14.10
2023-03-13T09:59:38.400Z,15.10
2023-03-13T10:00:38.486Z,16.50
2023-03-13T10:01:38.694Z,18.70
2023-03-13T10:02:38.668Z,16.10
2023-03-13T10:03:38.750Z,14.30
2023-03-13T10:04:41.627Z,13.40
2023-03-13T10:05:38.949Z,13.10
2023-03-13T10:06:39.031Z,14.30
2023-03-13T10:07:39.133Z,14.80
2023-03-13T10:08:39.172Z,16.30
2023-03-13T10:09:39.256Z,14.80
2023-03-13T10:10:39.361Z,15.60
2023-03-13T10:11:39.404Z,14.50
2023-03-13T10:12:39.520Z,11.00
2023-03-13T10:13:39.622Z,11.60
2023-03-13T10:14:39.655Z,14.00
2023-03-13T10:15:39.781Z,15.60
2023-03-13T10:16:39.835Z,14.30
2023-03-13T10:17:39.969Z,11.60
2023-03-13T10:18:40.010Z,14.60
2023-03-13T10:19:40.089Z,13.10
2023-03-13T10:20:40.154Z,14.70
2023-03-13T10:21:40.209Z,14.30
2023-03-13T10:22:40.297Z,15.20
2023-03-13T10:23:40.352Z,12.10
2023-03-13T10:24:40.475Z,15.60
2023-03-13T10:25:40.556Z,14.70
2023-03-13T10:26:40.598Z,13.10
2023-03-13T10:27:40.682Z,14.70
2023-03-13T10:28:40.783Z,16.40
2023-03-13T10:29:40.874Z,13.90
2023-03-13T10:30:40.959Z,14.50
2023-03-13T10:31:41.039Z,15.90
2023-03-13T10:32:41.138Z,14.60
2023-03-13T10:33:41.197Z,11.60
2023-03-13T10:34:41.292Z,12.60
2023-03-13T10:35:41.363Z,13.80
2023-03-13T10:36:41.428Z,12.60
2023-03-13T10:37:41.489Z,12.60
2023-03-13T10:38:41.566Z,12.70
2023-03-13T10:39:41.704Z,11.60
2023-03-13T10:40:41.741Z,12.40
2023-03-13T10:41:41.830Z,11.60
2023-03-13T10:42:41.886Z,12.30
2023-03-13T10:43:41.949Z,11.20
2023-03-13T10:44:42.092Z,12.80
2023-03-13T10:45:42.101Z,12.90
2023-03-13T10:46:42.279Z,11.70
2023-03-13T10:47:42.308Z,12.00
2023-03-13T10:48:42.374Z,11.90
2023-03-13T10:49:42.476Z,13.60
2023-03-13T10:50:42.570Z,11.80
2023-03-13T10:51:42.696Z,10.40
2023-03-13T10:52:42.797Z,10.80
2023-03-13T10:53:42.847Z,10.10
2023-03-13T10:54:42.949Z,13.00
2023-03-13T10:55:43.028Z,15.90
2023-03-13T10:56:43.122Z,11.60
2023-03-13T10:57:43.257Z,11.40
2023-03-13T10:58:43.336Z,10.30
2023-03-13T10:59:43.378Z,11.30
2023-03-13T11:00:43.473Z,9.80
2023-03-13T11:01:43.546Z,11.20
2023-03-13T11:02:43.717Z,10.00
2023-03-13T11:03:43.907Z,10.10
2023-03-13T11:04:43.804Z,9.40
2023-03-13T11:05:43.892Z,9.00
2023-03-13T11:06:43.989Z,9.70
2023-03-13T11:07:44.093Z,8.90
2023-03-13T11:08:44.176Z,10.90
2023-03-13T11:09:44.216Z,8.20
2023-03-13T11:10:44.287Z,10.10
2023-03-13T11:11:44.388Z,7.70
2023-03-13T11:12:44.498Z,9.30
2023-03-13T11:13:44.618Z,10.00
2023-03-13T11:14:44.651Z,8.50
2023-03-13T11:15:44.821Z,7.80
2023-03-13T11:16:44.851Z,8.10
2023-03-13T11:17:44.919Z,8.50
2023-03-13T11:18:45.031Z,7.80
2023-03-13T11:19:45.115Z,8.80
2023-03-13T11:20:45.204Z,7.10
2023-03-13T11:21:45.331Z,7.80
2023-03-13T11:22:45.336Z,8.60
2023-03-13T11:23:45.419Z,10.30
2023-03-13T11:24:45.555Z,6.80
2023-03-13T11:25:45.623Z,8.20
2023-03-13T11:26:52.410Z,7.80
2023-03-13T11:27:46.768Z,7.40
2023-03-13T11:28:45.938Z,8.00
2023-03-13T11:29:46.010Z,6.60
2023-03-13T11:30:46.006Z,7.50
2023-03-13T11:31:46.130Z,7.40
2023-03-13T11:32:46.253Z,7.10
2023-03-13T11:33:46.256Z,8.00
2023-03-13T11:34:46.368Z,7.10
2023-03-13T11:35:46.513Z,6.20
2023-03-13T11:36:46.583Z,6.70
2023-03-13T11:37:46.582Z,6.20
2023-03-13T11:38:46.696Z,6.30
2023-03-13T11:39:46.771Z,6.40
2023-03-13T11:40:46.889Z,5.00
2023-03-13T11:41:46.992Z,6.90
2023-03-13T11:42:47.094Z,6.70
2023-03-13T11:43:47.107Z,5.50
2023-03-13T11:44:47.194Z,7.50
2023-03-13T11:45:47.421Z,5.30
2023-03-13T11:46:47.541Z,5.50
2023-03-13T11:47:47.510Z,6.00
2023-03-13T11:48:47.534Z,5.40
2023-03-13T11:49:47.655Z,6.90
2023-03-13T11:50:47.750Z,6.10
2023-03-13T11:51:47.795Z,5.20
2023-03-13T11:52:47.979Z,5.20
2023-03-13T11:53:47.990Z,5.30
2023-03-13T11:54:48.081Z,5.60
2023-03-13T11:55:48.164Z,6.00
2023-03-13T11:56:48.255Z,5.80
2023-03-13T11:57:48.379Z,5.90
2023-03-13T11:58:48.431Z,6.20
2023-03-13T11:59:48.519Z,6.30
2023-03-13T12:00:48.618Z,5.70
2023-03-13T12:01:48.854Z,5.50
2023-03-13T12:02:48.790Z,5.20
2023-03-13T12:03:48.997Z,6.20
2023-03-13T12:04:49.064Z,5.30
2023-03-13T12:05:49.049Z,4.90
2023-03-13T12:06:49.141Z,5.60
2023-03-13T12:07:49.265Z,5.90
2023-03-13T12:08:49.336Z,5.20
2023-03-13T12:09:49.495Z,6.10
2023-03-13T12:10:49.498Z,4.80
2023-03-13T12:11:49.582Z,5.80
2023-03-13T12:12:49.686Z,5.60
2023-03-13T12:13:49.740Z,5.00
2023-03-13T12:14:49.875Z,5.40
2023-03-13T12:15:49.930Z,5.80
2023-03-13T12:16:50.058Z,5.30
2023-03-13T12:17:50.155Z,5.20
2023-03-13T12:18:50.239Z,5.40
2023-03-13T12:19:50.300Z,5.80
2023-03-13T12:20:50.369Z,5.50
2023-03-13T12:21:50.550Z,5.40
2023-03-13T12:22:50.536Z,4.90
2023-03-13T12:23:50.664Z,4.70
2023-03-13T12:24:50.688Z,5.20
2023-03-13T12:25:50.790Z,5.20
2023-03-13T12:26:50.825Z,5.50
2023-03-13T12:27:50.933Z,5.50
2023-03-13T12:28:51.041Z,5.60
2023-03-13T12:29:51.151Z,5.70
2023-03-13T12:30:51.253Z,5.20
2023-03-13T12:31:51.249Z,5.90
2023-03-13T12:32:51.392Z,4.00
2023-03-13T12:33:51.535Z,4.50
2023-03-13T12:34:51.557Z,6.10
2023-03-13T12:35:51.678Z,4.70
2023-03-13T12:36:51.680Z,5.00
2023-03-13T12:37:51.799Z,4.60
2023-03-13T12:38:51.876Z,4.40
2023-03-13T12:39:51.994Z,4.70
2023-03-13T12:40:52.109Z,5.10
2023-03-13T12:41:52.180Z,4.60
2023-03-13T12:42:52.215Z,4.40
2023-03-13T12:44:07.305Z,4.40
2023-03-13T12:44:53.342Z,4.10
2023-03-13T12:45:52.548Z,3.60
2023-03-13T12:46:52.588Z,4.80
2023-03-13T12:47:52.656Z,4.50
2023-03-13T12:48:52.684Z,4.30
2023-03-13T12:49:52.840Z,4.60
2023-03-13T12:50:52.897Z,3.80
2023-03-13T12:51:52.922Z,4.10
2023-03-13T12:52:53.017Z,3.50
2023-03-13T12:55:21.332Z,3.80
2023-03-13T12:56:21.417Z,3.90
2023-03-13T12:57:21.511Z,4.50
2023-03-13T12:58:34.845Z,4.10
2023-03-13T12:59:21.649Z,3.70
2023-03-13T13:00:21.746Z,4.90
2023-03-13T13:01:21.940Z,3.90
2023-03-13T13:02:21.963Z,3.60
2023-03-13T13:03:22.046Z,3.90
2023-03-13T13:04:22.151Z,4.00
2023-03-13T13:05:22.200Z,4.70
2023-03-13T13:06:22.247Z,4.20
2023-03-13T13:07:22.357Z,5.50
2023-03-13T13:08:22.441Z,4.00
2023-03-13T13:09:22.505Z,4.00
2023-03-13T13:10:22.623Z,3.50
2023-03-13T13:11:24.349Z,3.80
2023-03-13T13:12:22.853Z,4.80
2023-03-13T13:13:22.915Z,4.50
2023-03-13T13:14:22.990Z,4.10
2023-03-13T13:15:23.059Z,3.50
2023-03-13T13:16:23.207Z,5.20
2023-03-13T13:17:23.365Z,4.90
2023-03-13T13:18:23.334Z,5.10
2023-03-13T13:19:23.397Z,6.80
2023-03-13T13:20:23.503Z,4.80
2023-03-13T13:21:23.635Z,5.50
2023-03-13T13:22:23.723Z,5.00
2023-03-13T13:23:23.816Z,4.00
2023-03-13T13:24:23.874Z,5.70
2023-03-13T13:25:23.942Z,4.20
2023-03-13T13:26:24.021Z,4.00
2023-03-13T13:27:24.081Z,4.70
2023-03-13T13:28:24.372Z,5.60
2023-03-13T13:29:24.400Z,4.70
2023-03-13T13:30:24.394Z,4.90
2023-03-13T13:31:24.677Z,5.80
2023-03-13T13:32:24.518Z,4.60
2023-03-13T13:33:24.587Z,4.60
2023-03-13T13:34:24.735Z,5.40
2023-03-13T13:35:24.780Z,6.00
2023-03-13T13:36:24.857Z,3.80
2023-03-13T13:37:24.981Z,4.10
2023-03-13T13:38:25.022Z,4.50
2023-03-13T13:39:25.122Z,4.60
2023-03-13T13:40:25.168Z,4.20
2023-03-13T13:41:25.343Z,5.10
2023-03-13T13:42:25.365Z,4.20
2023-03-13T13:43:25.491Z,5.10
2023-03-13T13:44:25.566Z,4.10
2023-03-13T13:45:25.761Z,5.60
2023-03-13T13:46:25.747Z,5.50
2023-03-13T13:47:25.828Z,4.50
2023-03-13T13:48:25.879Z,5.20
2023-03-13T13:49:25.989Z,4.70
2023-03-13T13:50:26.068Z,4.70
2023-03-13T13:51:26.159Z,6.20
2023-03-13T13:52:26.246Z,6.00
2023-03-13T13:53:26.284Z,5.30
2023-03-13T13:54:26.391Z,4.40
2023-03-13T13:55:26.539Z,4.00
2023-03-13T13:56:26.733Z,4.80
2023-03-13T13:57:26.642Z,5.30
2023-03-13T13:58:26.751Z,3.80
2023-03-13T13:59:26.801Z,4.80
2023-03-13T14:00:26.924Z,4.30
2023-03-13T14:01:27.106Z,4.10
2023-03-13T14:02:27.067Z,4.50
2023-03-13T14:03:27.158Z,6.40
2023-03-13T14:04:27.244Z,4.50
2023-03-13T14:05:27.370Z,5.30
2023-03-13T14:06:27.461Z,4.60
2023-03-13T14:07:27.675Z,5.10
2023-03-13T14:08:27.602Z,4.50
2023-03-13T14:09:27.693Z,4.60
2023-03-13T14:10:27.770Z,4.60
2023-03-13T14:11:27.931Z,4.70
2023-03-13T14:12:27.949Z,4.50
2023-03-13T14:13:28.089Z,5.10
2023-03-13T14:14:28.128Z,5.70
2023-03-13T14:15:28.218Z,5.70
2023-03-13T14:16:28.407Z,4.00
2023-03-13T14:17:28.414Z,5.20
2023-03-13T14:18:28.556Z,4.80
2023-03-13T14:19:28.595Z,5.10
2023-03-13T14:20:28.687Z,5.10
2023-03-13T14:21:28.755Z,4.70
2023-03-13T14:22:28.827Z,5.70
2023-03-13T14:23:29.012Z,3.70
2023-03-13T14:24:28.986Z,4.00
2023-03-13T14:25:29.081Z,5.00
2023-03-13T14:26:29.173Z,4.60
2023-03-13T14:27:29.273Z,5.40
2023-03-13T14:28:29.395Z,5.00
2023-03-13T14:29:29.459Z,4.60
2023-03-13T14:30:29.482Z,5.40
2023-03-13T14:31:29.651Z,5.70
2023-03-13T14:32:29.700Z,5.40
2023-03-13T14:33:29.781Z,4.90
2023-03-13T14:34:32.685Z,4.30
2023-03-13T14:35:29.940Z,4.60
2023-03-13T14:36:30.048Z,5.20
2023-03-13T14:37:30.129Z,4.50
2023-03-13T14:38:30.221Z,6.50
2023-03-13T14:39:30.349Z,5.30
2023-03-13T14:40:30.401Z,5.10
2023-03-13T14:41:30.493Z,4.30
2023-03-13T14:42:30.557Z,5.30
2023-03-13T14:43:30.658Z,4.90
2023-03-13T14:44:30.790Z,5.40
2023-03-13T14:45:30.821Z,5.10
2023-03-13T14:46:30.997Z,5.10
2023-03-13T14:47:31.045Z,5.10
2023-03-13T14:48:31.032Z,5.50
2023-03-13T14:49:31.218Z,5.50
2023-03-13T14:50:31.237Z,5.70
2023-03-13T14:51:31.323Z,5.60
2023-03-13T14:52:31.449Z,5.20
2023-03-13T14:53:31.503Z,4.80
2023-03-13T14:54:31.634Z,5.90
2023-03-13T14:55:31.710Z,5.40
2023-03-13T14:56:31.814Z,3.60
2023-03-13T14:57:31.848Z,5.10
2023-03-13T14:58:31.932Z,4.40
2023-03-13T14:59:32.049Z,4.40
2023-03-13T15:00:32.157Z,4.50
2023-03-13T15:01:32.202Z,5.30
2023-03-13T15:02:32.312Z,6.00
2023-03-13T15:03:32.350Z,4.00
2023-03-13T15:04:32.446Z,4.70
2023-03-13T15:05:32.562Z,4.60
2023-03-13T15:06:32.602Z,4.20
2023-03-13T15:07:32.655Z,4.90
2023-03-13T15:08:32.746Z,5.00
2023-03-13T15:09:32.847Z,5.10
2023-03-13T15:10:32.950Z,4.70
2023-03-13T15:11:33.035Z,6.20
2023-03-13T15:12:33.081Z,5.60
2023-03-13T15:13:33.232Z,4.50
2023-03-13T15:14:33.258Z,5.10
2023-03-13T15:15:33.317Z,5.60
2023-03-13T15:16:33.518Z,5.00
2023-03-13T15:17:33.510Z,4.80
2023-03-13T15:18:33.604Z,4.60
2023-03-13T15:19:33.678Z,5.70
2023-03-13T15:20:33.787Z,5.20
2023-03-13T15:21:33.910Z,4.60
2023-03-13T15:22:33.949Z,5.00
2023-03-13T15:23:34.055Z,5.50
2023-03-13T15:24:34.122Z,3.90
2023-03-13T15:25:34.198Z,5.80
2023-03-13T15:26:34.269Z,4.80
2023-03-13T15:27:34.403Z,4.90
2023-03-13T15:28:34.435Z,4.10
2023-03-13T15:29:34.494Z,4.90
2023-03-13T15:30:34.592Z,5.30
2023-03-13T15:31:34.719Z,5.90
2023-03-13T15:32:34.831Z,5.00
2023-03-13T15:33:34.841Z,4.80
2023-03-13T15:34:34.931Z,4.90
2023-03-13T15:35:35.049Z,5.00
2023-03-13T15:36:35.110Z,4.70
2023-03-13T15:37:35.242Z,4.70
2023-03-13T15:38:35.346Z,6.20
2023-03-13T15:39:35.383Z,5.40
2023-03-13T15:40:35.443Z,4.30
2023-03-13T15:41:35.519Z,5.80
2023-03-13T15:42:35.617Z,5.60
2023-03-13T15:43:35.726Z,5.00
2023-03-13T15:44:35.794Z,4.20
2023-03-13T15:45:35.962Z,4.60
2023-03-13T15:46:35.978Z,5.90
2023-03-13T15:47:36.066Z,4.20
2023-03-13T15:48:36.263Z,4.70
2023-03-13T15:49:36.236Z,6.00
2023-03-13T15:50:36.320Z,7.70
2023-03-13T15:51:36.409Z,5.40
2023-03-13T15:52:36.471Z,5.90
2023-03-13T15:53:36.570Z,6.10
2023-03-13T15:54:36.631Z,6.00
2023-03-13T15:55:36.711Z,5.90
2023-03-13T15:56:36.843Z,7.50
2023-03-13T15:57:36.916Z,6.80
2023-03-13T15:58:36.957Z,7.00
2023-03-13T15:59:37.260Z,6.20
2023-03-13T16:00:37.111Z,5.40
2023-03-13T16:01:37.239Z,5.10
2023-03-13T16:02:37.324Z,6.20
2023-03-13T16:03:37.390Z,6.10
2023-03-13T16:04:37.528Z,5.50
2023-03-13T16:05:37.589Z,4.90
2023-03-13T16:06:37.667Z,4.20
2023-03-13T16:07:37.747Z,5.30
2023-03-13T16:08:37.832Z,4.80
2023-03-13T16:09:37.955Z,4.80
2023-03-13T16:10:38.041Z,4.90
2023-03-13T16:11:38.086Z,5.80
2023-03-13T16:12:38.153Z,7.00
2023-03-13T16:13:38.249Z,5.80
2023-03-13T16:14:38.319Z,7.10
2023-03-13T16:15:38.509Z,5.40
2023-03-13T16:16:38.562Z,5.80
2023-03-13T16:17:38.608Z,6.30
2023-03-13T16:18:38.693Z,6.30
2023-03-13T16:19:38.824Z,5.80
2023-03-13T16:20:38.906Z,5.50
2023-03-13T16:21:38.992Z,5.10
2023-03-13T16:22:39.040Z,4.80
2023-03-13T16:23:39.132Z,5.50
2023-03-13T16:24:39.224Z,6.20
2023-03-13T16:25:39.332Z,5.50
2023-03-13T16:26:39.449Z,5.20
2023-03-13T16:27:39.526Z,5.20
2023-03-13T16:28:39.568Z,5.50
2023-03-13T16:29:39.640Z,6.40
2023-03-13T16:30:39.730Z,6.40
2023-03-13T16:31:39.896Z,5.80
2023-03-13T16:32:39.998Z,4.70
2023-03-13T16:33:39.994Z,6.00
2023-03-13T16:34:40.064Z,5.20
2023-03-13T16:35:40.203Z,5.90
2023-03-13T16:36:40.266Z,4.30
2023-03-13T16:37:40.408Z,5.00
2023-03-13T16:38:40.423Z,6.50
2023-03-13T16:39:40.521Z,5.60
2023-03-13T16:40:40.610Z,5.30
2023-03-13T16:41:40.703Z,5.20
2023-03-13T16:42:40.837Z,6.00
2023-03-13T16:43:40.897Z,5.20
2023-03-13T16:44:40.973Z,6.40
2023-03-13T16:45:41.116Z,6.20
2023-03-13T16:46:41.294Z,5.10
2023-03-13T16:47:41.261Z,6.40
2023-03-13T16:48:41.397Z,6.60
2023-03-13T16:49:41.431Z,5.90
2023-03-13T16:50:41.517Z,6.90
2023-03-13T16:51:41.597Z,5.70
2023-03-13T16:52:41.679Z,6.00
2023-03-13T16:53:41.828Z,6.70
2023-03-13T16:54:41.911Z,5.60
2023-03-13T16:55:41.984Z,5.40
2023-03-13T16:56:42.031Z,6.30
2023-03-13T16:57:42.132Z,4.80
2023-03-13T16:58:42.228Z,6.20
2023-03-13T16:59:42.290Z,6.10
2023-03-13T17:00:42.395Z,7.70
2023-03-13T17:01:42.470Z,6.40
2023-03-13T17:02:42.571Z,5.80
2023-03-13T17:03:42.661Z,5.50
2023-03-13T17:04:44.693Z,4.70
2023-03-13T17:05:42.844Z,5.80
2023-03-13T17:06:42.911Z,5.60
2023-03-13T17:07:43.008Z,5.20
2023-03-13T17:08:43.066Z,6.60
2023-03-13T17:09:43.135Z,6.20
2023-03-13T17:10:43.261Z,5.10
2023-03-13T17:11:43.330Z,5.70
2023-03-13T17:12:43.412Z,5.00
2023-03-13T17:13:43.522Z,5.30
2023-03-13T17:14:43.643Z,5.30
2023-03-13T17:15:43.742Z,7.00
2023-03-13T17:16:43.776Z,6.60
2023-03-13T17:17:45.531Z,5.90
2023-03-13T17:18:43.983Z,4.80
2023-03-13T17:19:44.055Z,5.20
2023-03-13T17:20:44.178Z,5.00
2023-03-13T17:21:44.238Z,4.90
2023-03-13T17:22:44.334Z,5.80
2023-03-13T17:23:44.440Z,5.00
2023-03-13T17:24:44.559Z,5.90
2023-03-13T17:25:44.618Z,5.20
2023-03-13T17:26:44.737Z,5.10
2023-03-13T17:27:44.776Z,5.20
2023-03-13T17:28:44.870Z,5.10
2023-03-13T17:29:44.962Z,5.00
2023-03-13T17:30:45.078Z,5.40
2023-03-13T17:31:45.155Z,5.60
2023-03-13T17:32:45.233Z,4.90
2023-03-13T17:33:45.328Z,5.30
2023-03-13T17:34:45.411Z,5.50
2023-03-13T17:35:45.524Z,4.30
2023-03-13T17:36:45.571Z,4.90
2023-03-13T17:37:45.607Z,6.30
2023-03-13T17:38:45.737Z,5.00
2023-03-13T17:39:45.795Z,5.00
2023-03-13T17:40:45.867Z,5.40
2023-03-13T17:41:45.935Z,5.90
2023-03-13T17:42:46.101Z,4.80
2023-03-13T17:43:46.116Z,5.60
2023-03-13T17:44:46.235Z,5.30
2023-03-13T17:45:46.278Z,5.10
2023-03-13T17:46:46.434Z,6.40
2023-03-13T17:47:46.439Z,6.00
2023-03-13T17:48:46.541Z,5.80
2023-03-13T17:49:46.625Z,6.70
2023-03-13T17:50:46.678Z,4.90
2023-03-13T17:51:46.742Z,4.90
2023-03-13T17:52:46.868Z,5.20
2023-03-13T17:53:46.920Z,5.10
2023-03-13T17:54:47.017Z,6.20
2023-03-13T17:55:47.102Z,4.70
2023-03-13T17:56:47.194Z,5.40
2023-03-13T17:57:47.313Z,9.40
2023-03-13T17:58:47.359Z,10.50
2023-03-13T17:59:47.456Z,6.90
2023-03-13T18:00:47.611Z,7.30
2023-03-13T18:01:47.706Z,6.90
2023-03-13T18:02:47.802Z,6.70
2023-03-13T18:03:47.805Z,6.50
2023-03-13T18:04:47.873Z,5.90
2023-03-13T18:05:48.008Z,5.20
2023-03-13T18:06:48.044Z,6.40
2023-03-13T18:07:48.146Z,6.10
2023-03-13T18:08:48.242Z,6.30
2023-03-13T18:09:48.364Z,5.50
2023-03-13T18:10:48.421Z,5.40
2023-03-13T18:11:48.514Z,6.00
2023-03-13T18:12:48.590Z,6.00
2023-03-13T18:13:48.656Z,5.20
2023-03-13T18:14:48.776Z,5.40
2023-03-13T18:15:48.874Z,5.10
2023-03-13T18:16:48.954Z,5.50
2023-03-13T18:17:49.004Z,5.70
2023-03-13T18:18:49.104Z,4.70
2023-03-13T18:19:49.229Z,5.40
2023-03-13T18:20:49.266Z,5.20
2023-03-13T18:21:49.415Z,5.80
2023-03-13T18:22:49.452Z,5.10
2023-03-13T18:23:49.540Z,5.30
2023-03-13T18:24:49.665Z,5.30
2023-03-13T18:25:49.719Z,5.50
2023-03-13T18:26:49.839Z,5.40
2023-03-13T18:27:49.876Z,5.20
2023-03-13T18:28:49.962Z,5.30
2023-03-13T18:29:50.059Z,5.30
2023-03-13T18:30:50.192Z,5.80
2023-03-13T18:31:50.333Z,5.40
2023-03-13T18:32:50.382Z,6.20
2023-03-13T18:33:50.401Z,6.00
2023-03-13T18:34:50.506Z,5.00
2023-03-13T18:35:50.698Z,4.90
2023-03-13T18:36:50.668Z,5.30
2023-03-13T18:37:50.780Z,6.00
2023-03-13T18:38:50.826Z,5.20
2023-03-13T18:39:50.915Z,7.50
2023-03-13T18:40:51.011Z,8.20
2023-03-13T18:41:51.099Z,6.40
2023-03-13T18:42:51.232Z,6.80
2023-03-13T18:43:51.313Z,5.80
2023-03-13T18:44:51.364Z,5.90
2023-03-13T18:45:51.456Z,5.70
2023-03-13T18:46:53.130Z,6.30
2023-03-13T18:47:51.594Z,5.90
2023-03-13T18:48:51.715Z,6.40
2023-03-13T18:49:51.765Z,6.20
2023-03-13T18:50:51.853Z,5.50
2023-03-13T18:51:51.923Z,6.90
2023-03-13T18:52:52.070Z,6.70
2023-03-13T18:53:52.107Z,5.70
2023-03-13T18:54:52.202Z,6.30
2023-03-13T18:55:52.294Z,6.40
2023-03-13T18:56:52.423Z,5.00
2023-03-13T18:57:52.536Z,5.20
2023-03-13T18:58:52.605Z,5.30
2023-03-13T18:59:52.674Z,5.90
2023-03-13T19:00:52.884Z,4.80
2023-03-13T19:01:52.912Z,6.10
2023-03-13T19:02:53.000Z,6.40
2023-03-13T19:03:53.035Z,5.50
2023-03-13T19:04:53.129Z,6.60
2023-03-13T19:05:53.169Z,5.20
2023-03-13T19:06:53.262Z,5.50
2023-03-13T19:07:53.342Z,4.90
2023-03-13T19:08:53.417Z,5.40
2023-03-13T19:09:53.550Z,6.40
2023-03-13T19:10:53.587Z,5.30
2023-03-13T19:11:53.702Z,5.00
2023-03-13T19:12:53.746Z,5.20
2023-03-13T19:13:53.829Z,6.60
2023-03-13T19:14:53.912Z,7.60
2023-03-13T19:15:54.005Z,6.40
2023-03-13T19:16:54.135Z,5.80
2023-03-13T19:17:54.172Z,5.70
2023-03-13T19:18:54.241Z,6.40
2023-03-13T19:19:54.374Z,5.70
2023-03-13T19:20:54.418Z,6.20
2023-03-13T19:21:54.473Z,5.70
2023-03-13T19:22:55.971Z,6.60
2023-03-13T19:23:54.662Z,6.70
2023-03-13T19:24:54.782Z,5.70
2023-03-13T19:25:54.890Z,8.50
2023-03-13T19:26:54.948Z,6.30
2023-03-13T19:27:54.983Z,5.60
2023-03-13T19:28:55.094Z,6.00
2023-03-13T19:29:55.183Z,6.10
2023-03-13T19:30:55.258Z,5.30
2023-03-13T19:31:55.469Z,5.60
2023-03-13T19:32:55.500Z,6.20
2023-03-13T19:33:55.538Z,6.60
2023-03-13T19:34:55.631Z,9.00
2023-03-13T19:35:55.743Z,7.30
2023-03-13T19:36:55.848Z,6.40
2023-03-13T19:37:55.942Z,6.40
2023-03-13T19:38:55.957Z,5.10
2023-03-13T19:39:56.018Z,5.60
2023-03-13T19:40:56.104Z,7.50
2023-03-13T19:41:58.256Z,5.50
2023-03-13T19:42:56.299Z,6.40
2023-03-13T19:43:56.331Z,6.10
2023-03-13T19:44:56.432Z,6.20
2023-03-13T19:45:56.511Z,5.80
2023-03-13T19:46:56.562Z,7.50
2023-03-13T19:47:56.713Z,6.00
2023-03-13T19:48:56.766Z,8.00
2023-03-13T19:49:58.081Z,6.80
2023-03-13T19:50:56.925Z,7.70
2023-03-13T19:51:56.994Z,8.10
2023-03-13T19:52:57.116Z,8.10
2023-03-13T19:53:57.220Z,7.10
2023-03-13T19:54:57.248Z,8.20
2023-03-13T19:55:57.348Z,7.90
2023-03-13T19:56:57.440Z,5.90
2023-03-13T19:57:57.622Z,7.80
2023-03-13T19:58:57.626Z,6.30
2023-03-13T19:59:57.673Z,7.00
2023-03-13T20:01:00.704Z,6.40
2023-03-13T20:01:58.873Z,6.50
2023-03-13T20:02:57.980Z,6.50
2023-03-13T20:03:58.021Z,6.30
2023-03-13T20:04:58.114Z,6.50
2023-03-13T20:05:58.164Z,6.40
2023-03-13T20:06:58.256Z,6.60
2023-03-13T20:07:58.360Z,7.20
2023-03-13T20:08:58.439Z,7.30
2023-03-13T20:09:58.601Z,12.60
2023-03-13T20:10:58.628Z,7.00
2023-03-13T20:11:58.730Z,9.00
2023-03-13T20:12:58.817Z,12.00
2023-03-13T20:13:58.887Z,7.80
2023-03-13T20:14:59.012Z,8.80
2023-03-13T20:15:59.082Z,6.70
2023-03-13T20:16:59.152Z,7.20
2023-03-13T20:17:59.246Z,6.40
2023-03-13T20:18:59.319Z,7.20
2023-03-13T20:19:59.442Z,8.30
2023-03-13T20:20:59.491Z,10.40
2023-03-13T20:21:59.594Z,9.00
2023-03-13T20:22:59.653Z,7.10
2023-03-13T20:23:59.761Z,9.20
2023-03-13T20:24:59.884Z,8.40
2023-03-13T20:25:59.962Z,10.70
2023-03-13T20:27:00.016Z,10.40
2023-03-13T20:28:00.169Z,10.20
2023-03-13T20:29:00.184Z,11.80
2023-03-13T20:30:00.243Z,7.50
2023-03-13T20:31:00.444Z,6.50
2023-03-13T20:32:00.449Z,8.20
2023-03-13T20:33:00.566Z,7.90
2023-03-13T20:34:00.618Z,7.10
2023-03-13T20:35:00.666Z,6.60
2023-03-13T20:36:00.798Z,6.20
2023-03-13T20:37:00.863Z,7.50
2023-03-13T20:38:00.921Z,6.70
2023-03-13T20:39:00.982Z,7.70
2023-03-13T20:40:01.082Z,9.70
2023-03-13T20:41:01.124Z,8.20
2023-03-13T20:42:02.969Z,7.30
2023-03-13T20:43:01.277Z,11.00
2023-03-13T20:44:01.361Z,8.80
2023-03-13T20:45:01.448Z,8.10
2023-03-13T20:46:01.659Z,6.20
2023-03-13T20:47:01.652Z,7.10
2023-03-13T20:48:01.685Z,7.10
2023-03-13T20:49:01.762Z,8.00
2023-03-13T20:50:01.833Z,6.00
2023-03-13T20:51:02.235Z,6.80
2023-03-13T20:52:02.057Z,6.90
2023-03-13T20:53:02.125Z,7.00
2023-03-13T20:54:02.264Z,8.00
2023-03-13T20:55:02.266Z,8.30
2023-03-13T20:56:03.281Z,8.40
2023-03-13T20:57:02.477Z,7.60
2023-03-13T20:58:02.531Z,7.40
2023-03-13T20:59:02.652Z,8.60
2023-03-13T21:00:02.697Z,7.00
2023-03-13T21:01:02.767Z,7.10
2023-03-13T21:02:02.937Z,5.70
2023-03-13T21:03:02.952Z,6.40
2023-03-13T21:04:03.063Z,5.50
2023-03-13T21:05:03.146Z,6.60